Time;durP1;ratioP1;P1;durP2;ratioP2;P2;SDS_P1;SDS_P2;PMS_P1;PMS_P2;Temp;Humidity;BMP_temperature;BMP_pressure;BME280_temperature;BME280_humidity;BME280_pressure;Samples;Min_cycle;Max_cycle;Signal;HPM_P1;HPM_P2
2021/12/16 00:01:51;;;;;;;17.38;9.15;;;;;;;;;;5036083;28;20509;-74
2021/12/16 00:07:34;;;;;;;18.98;9.07;;;;;;;;;;4963704;28;20189;-74
2021/12/16 00:10:22;;;;;;;16.75;8.68;;;;;;;;;;4959833;28;20089;-74
2021/12/16 00:34:35;;;;;;;22.90;11.50;;;;;;;;;;4974258;28;20051;-74
2021/12/16 00:37:01;;;;;;;22.20;12.10;;;;;;;;;;4974525;28;20035;-74
2021/12/16 00:39:32;;;;;;;19.87;11.80;;;;;;;;;;4991632;28;20579;-74
2021/12/16 00:42:04;;;;;;;19.92;10.02;;;;;;;;;;5034123;28;20349;-73
2021/12/16 00:47:24;;;;;;;19.95;9.68;;;;;;;;;;5035326;28;20139;-73
2021/12/16 00:49:49;;;;;;;20.85;10.35;;;;;;;;;;5034779;28;20033;-73
2021/12/16 00:55:34;;;;;;;17.20;8.75;;;;;;;;;;5046895;28;20039;-73
2021/12/16 00:57:59;;;;;;;22.67;9.85;;;;;;;;;;5034083;28;20040;-73
2021/12/16 01:00:28;;;;;;;21.30;10.43;;;;;;;;;;5034940;28;20038;-74
2021/12/16 01:41:29;;;;;;;26.37;14.80;;;;;;;;;;5049745;28;20033;-72
2021/12/16 01:47:13;;;;;;;25.02;13.40;;;;;;;;;;5033984;28;20053;-72
2021/12/16 01:57:29;;;;;;;23.85;11.18;;;;;;;;;;5033352;28;20056;-72
2021/12/16 02:00:04;;;;;;;29.15;13.15;;;;;;;;;;5032976;28;20029;-72
2021/12/16 02:07:55;;;;;;;23.98;12.48;;;;;;;;;;5030235;28;20120;-72
2021/12/16 02:10:25;;;;;;;33.28;13.88;;;;;;;;;;5027322;28;20469;-74
2021/12/16 02:29:15;;;;;;;25.73;12.63;;;;;;;;;;5032678;28;20048;-72
2021/12/16 02:31:57;;;;;;;26.30;13.02;;;;;;;;;;5043746;28;20456;-72
2021/12/16 02:34:41;;;;;;;25.30;12.55;;;;;;;;;;5029484;28;20111;-72
2021/12/16 02:37:15;;;;;;;19.58;11.55;;;;;;;;;;5031141;28;20396;-72
2021/12/16 02:39:42;;;;;;;28.33;12.95;;;;;;;;;;5028845;28;20032;-72
2021/12/16 02:42:14;;;;;;;24.45;11.48;;;;;;;;;;5032977;28;20389;-72
2021/12/16 02:50:17;;;;;;;23.98;11.52;;;;;;;;;;5006815;28;20399;-72
2021/12/16 02:52:43;;;;;;;26.15;12.38;;;;;;;;;;5033003;28;20102;-72
2021/12/16 02:55:10;;;;;;;28.40;12.47;;;;;;;;;;5030015;28;20534;-71
2021/12/16 02:57:44;;;;;;;31.88;13.55;;;;;;;;;;5031950;28;20104;-71
2021/12/16 03:00:13;;;;;;;26.75;11.77;;;;;;;;;;5031299;28;20042;-72
2021/12/16 03:02:39;;;;;;;29.02;11.73;;;;;;;;;;5032966;28;20041;-72
2021/12/16 03:05:05;;;;;;;30.30;13.90;;;;;;;;;;5031822;28;20112;-72
2021/12/16 03:07:31;;;;;;;30.98;15.05;;;;;;;;;;5033063;28;20136;-73
2021/12/16 03:18:11;;;;;;;30.27;14.40;;;;;;;;;;5031741;28;20478;-71
2021/12/16 03:20:45;;;;;;;26.77;14.38;;;;;;;;;;5032209;28;20541;-72
2021/12/16 03:33:44;;;;;;;31.08;15.25;;;;;;;;;;5031680;28;20049;-72
2021/12/16 03:36:50;;;;;;;29.65;14.80;;;;;;;;;;5023417;28;20041;-72
2021/12/16 03:39:10;;;;;;;37.65;17.35;;;;;;;;;;5028105;28;20045;-72
2021/12/16 03:41:36;;;;;;;32.83;16.58;;;;;;;;;;5029979;28;20021;-72
2021/12/16 03:44:08;;;;;;;28.42;15.63;;;;;;;;;;5031719;28;20111;-72
2021/12/16 03:46:37;;;;;;;32.88;16.60;;;;;;;;;;5047207;28;20436;-72
2021/12/16 03:49:19;;;;;;;27.88;15.68;;;;;;;;;;5031150;28;20065;-72
2021/12/16 03:51:54;;;;;;;31.13;16.23;;;;;;;;;;5029737;28;20485;-72
2021/12/16 03:54:28;;;;;;;32.72;16.50;;;;;;;;;;5030822;28;20061;-72
2021/12/16 03:56:55;;;;;;;30.52;15.40;;;;;;;;;;5032249;28;20478;-72
2021/12/16 03:59:23;;;;;;;36.58;16.13;;;;;;;;;;5031237;28;20041;-72
2021/12/16 04:01:49;;;;;;;36.65;17.33;;;;;;;;;;5032396;28;20068;-72
2021/12/16 04:04:15;;;;;;;37.07;16.70;;;;;;;;;;5032526;28;20060;-71
2021/12/16 04:06:40;;;;;;;33.27;17.37;;;;;;;;;;5033876;28;20041;-72
2021/12/16 04:09:08;;;;;;;31.90;17.40;;;;;;;;;;5036025;28;20029;-73
2021/12/16 04:11:40;;;;;;;31.65;15.90;;;;;;;;;;5034731;28;20037;-72
2021/12/16 04:14:09;;;;;;;32.35;17.35;;;;;;;;;;5034776;28;20059;-73
2021/12/16 04:16:38;;;;;;;32.35;16.50;;;;;;;;;;5051192;28;20065;-72
2021/12/16 04:19:11;;;;;;;33.67;16.30;;;;;;;;;;5036092;28;20103;-71
2021/12/16 04:21:42;;;;;;;33.42;18.23;;;;;;;;;;5035447;28;20049;-74
2021/12/16 04:24:09;;;;;;;34.10;16.83;;;;;;;;;;5034811;28;20046;-74
2021/12/16 04:26:35;;;;;;;;;;;;;;;;;;5033721;28;21276;-75
2021/12/16 04:29:03;;;;;;;32.78;15.15;;;;;;;;;;5035857;28;19948;-76
2021/12/16 04:31:29;;;;;;;28.45;14.68;;;;;;;;;;5040417;28;20049;-74
2021/12/16 04:33:54;;;;;;;33.97;17.37;;;;;;;;;;5035708;28;20041;-74
2021/12/16 04:36:20;;;;;;;37.33;18.93;;;;;;;;;;5034280;28;20037;-74
2021/12/16 04:38:47;;;;;;;35.57;17.00;;;;;;;;;;5050925;28;20128;-74
2021/12/16 04:41:12;;;;;;;;;;;;;;;;;;5034684;28;20057;-75
2021/12/16 04:43:40;;;;;;;28.75;14.50;;;;;;;;;;5035228;28;20396;-74
2021/12/16 04:46:12;;;;;;;29.50;13.70;;;;;;;;;;5050155;28;20053;-75
2021/12/16 04:48:39;;;;;;;26.95;12.40;;;;;;;;;;5035254;28;20029;-72
2021/12/16 04:51:05;;;;;;;26.85;13.35;;;;;;;;;;5035400;28;20064;-72
2021/12/16 04:53:31;;;;;;;24.15;13.60;;;;;;;;;;5033920;28;20500;-72
2021/12/16 04:55:57;;;;;;;26.77;12.27;;;;;;;;;;5050176;28;20038;-72
2021/12/16 04:58:23;;;;;;;26.97;13.73;;;;;;;;;;5033620;28;20115;-72
2021/12/16 05:00:49;;;;;;;24.15;13.20;;;;;;;;;;5035272;28;20466;-74
2021/12/16 05:03:14;;;;;;;25.15;13.20;;;;;;;;;;5048987;28;20041;-76
2021/12/16 05:05:40;;;;;;;26.07;12.93;;;;;;;;;;5035244;28;20121;-74
2021/12/16 05:08:05;;;;;;;25.90;13.37;;;;;;;;;;5033530;28;20117;-75
2021/12/16 05:10:31;;;;;;;27.20;14.33;;;;;;;;;;5034897;28;20366;-75
2021/12/16 05:12:59;;;;;;;27.00;13.23;;;;;;;;;;5017161;28;20051;-71
2021/12/16 05:15:31;;;;;;;26.60;12.43;;;;;;;;;;5033616;28;20037;-71
2021/12/16 05:18:01;;;;;;;24.55;13.18;;;;;;;;;;5033779;28;20033;-71
2021/12/16 05:20:30;;;;;;;27.00;12.90;;;;;;;;;;5033627;28;20052;-71
2021/12/16 05:28:10;;;;;;;27.63;13.38;;;;;;;;;;5034668;28;20045;-71
2021/12/16 05:30:36;;;;;;;25.90;13.52;;;;;;;;;;5037015;28;20056;-72
2021/12/16 05:33:02;;;;;;;20.03;11.30;;;;;;;;;;5050104;28;20462;-71
2021/12/16 05:35:28;;;;;;;16.92;10.35;;;;;;;;;;5034321;28;20120;-71
2021/12/16 05:37:54;;;;;;;20.07;11.77;;;;;;;;;;5049774;28;20119;-71
2021/12/16 05:40:25;;;;;;;20.30;10.27;;;;;;;;;;5033301;28;20569;-71
2021/12/16 05:43:03;;;;;;;19.50;9.63;;;;;;;;;;5033972;28;20393;-71
2021/12/16 05:45:29;;;;;;;21.13;9.93;;;;;;;;;;5029515;28;20036;-71
2021/12/16 05:47:57;;;;;;;20.75;11.02;;;;;;;;;;5032906;28;20045;-71
2021/12/16 05:50:24;;;;;;;21.17;10.32;;;;;;;;;;5031903;28;20045;-71
2021/12/16 05:52:50;;;;;;;16.40;9.35;;;;;;;;;;5032899;28;20079;-71
2021/12/16 05:55:16;;;;;;;21.43;10.50;;;;;;;;;;5034185;28;20394;-71
2021/12/16 05:57:42;;;;;;;19.33;8.93;;;;;;;;;;5034014;28;20064;-71
2021/12/16 06:00:12;;;;;;;26.27;9.45;;;;;;;;;;5034000;28;20064;-71
2021/12/16 06:02:38;;;;;;;15.55;7.57;;;;;;;;;;5033894;28;20034;-72
2021/12/16 06:05:04;;;;;;;15.83;9.50;;;;;;;;;;5033934;28;20099;-71
2021/12/16 06:07:29;;;;;;;16.80;8.30;;;;;;;;;;5034015;28;20124;-71
2021/12/16 06:09:55;;;;;;;22.83;8.90;;;;;;;;;;5032419;28;20275;-71
2021/12/16 06:12:22;;;;;;;19.27;8.67;;;;;;;;;;5033787;28;20045;-71
2021/12/16 06:15:02;;;;;;;20.77;8.63;;;;;;;;;;5033819;28;20022;-71
2021/12/16 06:26:25;;;;;;;14.13;8.13;;;;;;;;;;5033338;28;20172;-71
2021/12/16 06:28:26;;;;;;;15.00;8.98;;;;;;;;;;5033019;28;20103;-71
2021/12/16 06:30:52;;;;;;;17.87;8.40;;;;;;;;;;5034848;28;20480;-71
2021/12/16 06:33:22;;;;;;;15.83;7.93;;;;;;;;;;5032309;28;20037;-71
2021/12/16 06:35:48;;;;;;;13.82;7.88;;;;;;;;;;5033441;28;20037;-71
2021/12/16 06:38:13;;;;;;;18.10;8.87;;;;;;;;;;5032273;28;20041;-72
2021/12/16 06:40:39;;;;;;;13.77;7.93;;;;;;;;;;5033307;28;20072;-71
2021/12/16 06:43:06;;;;;;;15.13;7.10;;;;;;;;;;5033434;28;20410;-71
2021/12/16 06:45:36;;;;;;;13.75;7.80;;;;;;;;;;5031966;28;20045;-71
2021/12/16 06:48:07;;;;;;;14.32;7.88;;;;;;;;;;5032218;28;20037;-71
2021/12/16 06:53:05;;;;;;;14.52;8.38;;;;;;;;;;5033168;28;20053;-71
2021/12/16 06:55:40;;;;;;;12.63;7.63;;;;;;;;;;5031887;28;20036;-71
2021/12/16 06:59:04;;;;;;;12.30;7.30;;;;;;;;;;5032843;28;20461;-72
2021/12/16 07:01:03;;;;;;;16.83;8.07;;;;;;;;;;5021562;28;20042;-75
2021/12/16 07:03:39;;;;;;;24.58;8.93;;;;;;;;;;5031796;28;20532;-74
2021/12/16 07:06:05;;;;;;;16.45;8.90;;;;;;;;;;5033030;28;20037;-74
2021/12/16 07:08:30;;;;;;;18.40;9.03;;;;;;;;;;5031859;28;20037;-74
2021/12/16 07:10:56;;;;;;;28.53;9.27;;;;;;;;;;5033014;28;20048;-73
2021/12/16 07:13:39;;;;;;;17.77;7.80;;;;;;;;;;5032900;28;20111;-71
2021/12/16 07:16:05;;;;;;;16.25;8.30;;;;;;;;;;5032032;28;20041;-72
2021/12/16 07:18:30;;;;;;;20.50;8.63;;;;;;;;;;5032711;28;20071;-71
2021/12/16 07:20:56;;;;;;;17.97;9.03;;;;;;;;;;5032717;28;20041;-71
2021/12/16 07:23:22;;;;;;;15.27;8.77;;;;;;;;;;5048458;28;20447;-71
2021/12/16 07:25:47;;;;;;;15.83;8.90;;;;;;;;;;5047815;28;20053;-71
2021/12/16 07:28:13;;;;;;;14.13;7.97;;;;;;;;;;5048393;28;20029;-71
2021/12/16 07:30:43;;;;;;;15.30;8.13;;;;;;;;;;5037682;28;20485;-71
2021/12/16 07:33:09;;;;;;;15.13;8.60;;;;;;;;;;5032928;28;20168;-71
2021/12/16 07:35:35;;;;;;;15.30;7.78;;;;;;;;;;5032550;28;20029;-71
2021/12/16 07:38:02;;;;;;;16.58;9.25;;;;;;;;;;5031675;28;20083;-71
2021/12/16 07:40:29;;;;;;;14.02;8.30;;;;;;;;;;5046839;28;20390;-72
2021/12/16 07:45:35;;;;;;;16.38;8.07;;;;;;;;;;5035566;28;20033;-72
2021/12/16 07:48:01;;;;;;;15.25;8.23;;;;;;;;;;5033784;28;20124;-71
2021/12/16 07:50:27;;;;;;;14.57;8.60;;;;;;;;;;5033982;28;20030;-71
2021/12/16 07:52:53;;;;;;;17.57;7.93;;;;;;;;;;5035357;28;20090;-73
2021/12/16 07:55:19;;;;;;;14.75;7.68;;;;;;;;;;5034788;28;20348;-71
2021/12/16 07:57:45;;;;;;;12.98;8.27;;;;;;;;;;5036036;28;20033;-71
2021/12/16 08:00:20;;;;;;;14.73;8.73;;;;;;;;;;5051901;28;20114;-71
2021/12/16 08:02:45;;;;;;;12.93;7.22;;;;;;;;;;5036040;28;20080;-71
2021/12/16 08:05:11;;;;;;;16.00;9.03;;;;;;;;;;5035412;28;20037;-71
2021/12/16 08:07:37;;;;;;;13.87;8.63;;;;;;;;;;5036086;28;20037;-71
2021/12/16 08:10:05;;;;;;;17.30;8.02;;;;;;;;;;5036181;28;20044;-71
2021/12/16 08:12:31;;;;;;;13.57;8.90;;;;;;;;;;5034708;28;20121;-71
2021/12/16 08:14:57;;;;;;;13.18;7.97;;;;;;;;;;5035872;28;20148;-71
2021/12/16 08:17:22;;;;;;;26.03;15.63;;;;;;;;;;5036101;28;20112;-72
2021/12/16 08:19:49;;;;;;;18.63;10.77;;;;;;;;;;5035956;28;20096;-71
2021/12/16 08:22:14;;;;;;;21.20;13.20;;;;;;;;;;5034533;28;20132;-71
2021/12/16 08:24:39;;;;;;;21.93;10.40;;;;;;;;;;5035686;28;20124;-73
2021/12/16 08:27:05;;;;;;;19.43;12.47;;;;;;;;;;5032833;28;20083;-72
2021/12/16 08:29:31;;;;;;;21.00;12.27;;;;;;;;;;5025811;28;20041;-74
2021/12/16 08:31:57;;;;;;;20.93;10.53;;;;;;;;;;5034606;28;20084;-74
2021/12/16 08:34:24;;;;;;;17.03;11.97;;;;;;;;;;5034325;28;20078;-74
2021/12/16 08:36:49;;;;;;;;;;;;;;;;;;5034475;28;20038;-73
2021/12/16 08:39:15;;;;;;;16.15;8.70;;;;;;;;;;5035048;28;19917;-74
2021/12/16 08:41:47;;;;;;;12.37;7.83;;;;;;;;;;5033667;28;20119;-76
2021/12/16 08:44:12;;;;;;;13.32;7.78;;;;;;;;;;5035570;28;20041;-74
2021/12/16 08:46:43;;;;;;;25.80;7.93;;;;;;;;;;5050345;28;20038;-74
2021/12/16 08:49:08;;;;;;;21.60;8.25;;;;;;;;;;5035053;28;20037;-74
2021/12/16 08:51:42;;;;;;;14.60;7.53;;;;;;;;;;5035206;28;20194;-74
2021/12/16 08:54:08;;;;;;;12.43;6.97;;;;;;;;;;5047387;28;20048;-74
2021/12/16 08:56:34;;;;;;;13.53;7.67;;;;;;;;;;5050487;28;20037;-74
2021/12/16 08:59:01;;;;;;;21.67;7.27;;;;;;;;;;5034809;28;20032;-74
2021/12/16 09:01:29;;;;;;;11.63;6.95;;;;;;;;;;5035342;28;20041;-74
2021/12/16 09:03:56;;;;;;;13.15;7.60;;;;;;;;;;5034984;28;20041;-74
2021/12/16 09:06:21;;;;;;;;;;;;;;;;;;5034317;28;20033;-74
2021/12/16 09:08:47;;;;;;;12.15;7.03;;;;;;;;;;5029936;28;19913;-74
2021/12/16 09:11:18;;;;;;;11.67;7.43;;;;;;;;;;5028941;28;20127;-74
2021/12/16 09:13:45;;;;;;;14.27;7.20;;;;;;;;;;5017016;28;20017;-74
2021/12/16 09:16:16;;;;;;;15.30;8.00;;;;;;;;;;5025608;28;20045;-74
2021/12/16 09:18:42;;;;;;;14.07;7.05;;;;;;;;;;5031206;28;20025;-74
2021/12/16 09:21:11;;;;;;;11.13;7.05;;;;;;;;;;5030912;28;20497;-74
2021/12/16 09:23:37;;;;;;;20.75;7.30;;;;;;;;;;5031179;28;20064;-74
2021/12/16 09:26:04;;;;;;;14.45;7.10;;;;;;;;;;5030599;28;20060;-74
2021/12/16 09:28:30;;;;;;;10.73;6.63;;;;;;;;;;5046767;28;20033;-74
2021/12/16 09:30:56;;;;;;;12.60;7.73;;;;;;;;;;5050635;28;20040;-77
2021/12/16 09:33:24;;;;;;;14.87;6.83;;;;;;;;;;5032073;28;20493;-74
2021/12/16 09:35:52;;;;;;;14.30;7.10;;;;;;;;;;5022040;28;20371;-74
2021/12/16 09:38:18;;;;;;;11.45;7.40;;;;;;;;;;5027802;28;20041;-74
2021/12/16 09:40:50;;;;;;;9.63;6.17;;;;;;;;;;5030554;28;20484;-74
2021/12/16 09:43:19;;;;;;;11.63;6.97;;;;;;;;;;5031310;28;20029;-74
2021/12/16 09:45:45;;;;;;;15.93;7.82;;;;;;;;;;5030804;28;20038;-74
2021/12/16 09:48:10;;;;;;;13.13;7.40;;;;;;;;;;5028401;28;20033;-74
2021/12/16 09:50:36;;;;;;;13.10;7.17;;;;;;;;;;5031306;28;20033;-75
2021/12/16 09:53:02;;;;;;;10.10;6.80;;;;;;;;;;5026815;28;20065;-76
2021/12/16 09:55:28;;;;;;;13.55;6.85;;;;;;;;;;5019804;28;20033;-75
2021/12/16 09:57:54;;;;;;;11.27;7.32;;;;;;;;;;5027755;28;20120;-74
2021/12/16 10:00:23;;;;;;;13.07;7.80;;;;;;;;;;5045378;28;20120;-74
2021/12/16 10:02:50;;;;;;;16.15;7.40;;;;;;;;;;5045284;28;20536;-74
2021/12/16 10:05:16;;;;;;;10.98;7.22;;;;;;;;;;5028130;28;20057;-74
2021/12/16 10:07:41;;;;;;;9.87;6.40;;;;;;;;;;5044895;28;20485;-74
2021/12/16 10:10:23;;;;;;;12.27;6.93;;;;;;;;;;5032351;28;20032;-74
2021/12/16 10:12:50;;;;;;;12.25;7.68;;;;;;;;;;5030625;28;20388;-75
2021/12/16 10:18:04;;;;;;;13.18;7.00;;;;;;;;;;5029388;28;20038;-74
2021/12/16 10:20:36;;;;;;;13.82;9.63;;;;;;;;;;5045459;28;20046;-75
2021/12/16 10:23:08;;;;;;;13.13;8.38;;;;;;;;;;5029351;28;20135;-74
2021/12/16 10:25:38;;;;;;;14.57;8.85;;;;;;;;;;5029739;28;20429;-74
2021/12/16 10:28:08;;;;;;;12.00;8.55;;;;;;;;;;5030395;28;20065;-74
2021/12/16 10:30:40;;;;;;;11.15;7.53;;;;;;;;;;5032395;28;20388;-74
2021/12/16 10:33:18;;;;;;;14.63;6.82;;;;;;;;;;5030546;28;20032;-74
2021/12/16 10:35:47;;;;;;;13.85;8.18;;;;;;;;;;5028601;28;20036;-75
2021/12/16 10:38:16;;;;;;;11.38;6.43;;;;;;;;;;5038187;28;20123;-74
2021/12/16 10:40:46;;;;;;;13.70;8.18;;;;;;;;;;5029098;28;20099;-74
2021/12/16 10:43:30;;;;;;;10.90;7.25;;;;;;;;;;5030108;28;20489;-74
2021/12/16 10:46:08;;;;;;;12.95;8.32;;;;;;;;;;5025202;28;20064;-74
2021/12/16 10:48:43;;;;;;;10.25;7.22;;;;;;;;;;5023343;28;20508;-77
2021/12/16 10:51:16;;;;;;;11.35;7.82;;;;;;;;;;5029620;28;20041;-74
2021/12/16 10:53:57;;;;;;;15.52;7.80;;;;;;;;;;5029148;28;20044;-74
2021/12/16 10:56:28;;;;;;;13.02;8.73;;;;;;;;;;5029389;28;20041;-74
2021/12/16 10:58:58;;;;;;;13.68;8.27;;;;;;;;;;5029326;28;20042;-74
2021/12/16 11:01:36;;;;;;;10.77;7.90;;;;;;;;;;5044774;28;20049;-74
2021/12/16 11:04:02;;;;;;;;;;;;;;;;;;5014119;28;20041;-74
2021/12/16 11:06:35;;;;;;;13.18;8.00;;;;;;;;;;5028306;28;19924;-75
2021/12/16 11:09:31;;;;;;;14.07;8.98;;;;;;;;;;5043045;28;20091;-74
2021/12/16 11:12:14;;;;;;;11.35;7.45;;;;;;;;;;5029072;28;20397;-74
2021/12/16 11:14:49;;;;;;;11.60;7.65;;;;;;;;;;5020398;28;20075;-74
2021/12/16 11:17:17;;;;;;;11.75;7.93;;;;;;;;;;5030984;28;20080;-74
2021/12/16 11:19:50;;;;;;;13.00;8.90;;;;;;;;;;5032656;28;20037;-74
2021/12/16 11:22:19;;;;;;;14.25;9.32;;;;;;;;;;5032393;28;20433;-75
2021/12/16 11:24:45;;;;;;;13.25;8.10;;;;;;;;;;5033465;28;20038;-74
2021/12/16 11:27:23;;;;;;;13.43;8.05;;;;;;;;;;5031597;28;20144;-74
2021/12/16 11:29:48;;;;;;;12.98;8.57;;;;;;;;;;5037192;28;20037;-74
2021/12/16 11:32:35;;;;;;;13.10;8.90;;;;;;;;;;5038818;28;20474;-74
2021/12/16 11:35:25;;;;;;;12.10;8.45;;;;;;;;;;5028528;28;20508;-74
2021/12/16 11:37:51;;;;;;;11.85;8.30;;;;;;;;;;5032106;28;20064;-74
2021/12/16 11:40:18;;;;;;;16.90;9.17;;;;;;;;;;5048129;28;20478;-74
2021/12/16 11:42:43;;;;;;;14.18;8.50;;;;;;;;;;5031766;28;20041;-74
2021/12/16 11:45:09;;;;;;;11.00;7.93;;;;;;;;;;5028272;28;20067;-74
2021/12/16 11:47:46;;;;;;;13.27;8.43;;;;;;;;;;5032991;28;20042;-74
2021/12/16 11:50:12;;;;;;;13.63;8.50;;;;;;;;;;5033092;28;20041;-74
2021/12/16 11:52:39;;;;;;;11.10;7.50;;;;;;;;;;5048509;28;20083;-74
2021/12/16 11:55:12;;;;;;;12.98;7.78;;;;;;;;;;5029702;28;20065;-74
2021/12/16 11:57:39;;;;;;;11.10;6.65;;;;;;;;;;5032552;28;20036;-73
2021/12/16 12:00:24;;;;;;;14.57;7.72;;;;;;;;;;5032285;28;20045;-75
2021/12/16 12:02:53;;;;;;;12.18;7.93;;;;;;;;;;5025610;28;20029;-74
2021/12/16 12:05:22;;;;;;;12.52;8.10;;;;;;;;;;5028513;28;20033;-75
2021/12/16 12:07:54;;;;;;;11.93;8.20;;;;;;;;;;5031627;28;20485;-74
2021/12/16 12:10:45;;;;;;;15.18;8.13;;;;;;;;;;5031753;28;20038;-74
2021/12/16 12:13:29;;;;;;;13.13;7.93;;;;;;;;;;5032361;28;20033;-74
2021/12/16 12:16:08;;;;;;;12.70;8.60;;;;;;;;;;5016994;28;20048;-74
2021/12/16 12:18:44;;;;;;;11.52;7.30;;;;;;;;;;5030562;28;20060;-74
2021/12/16 12:21:41;;;;;;;15.15;8.27;;;;;;;;;;5031360;28;20087;-75
2021/12/16 12:24:25;;;;;;;10.15;7.57;;;;;;;;;;5046103;28;20052;-74
2021/12/16 12:26:54;;;;;;;11.68;7.53;;;;;;;;;;5031134;28;20086;-74
2021/12/16 12:29:30;;;;;;;10.90;7.60;;;;;;;;;;5030750;28;20034;-75
2021/12/16 12:32:05;;;;;;;12.70;7.88;;;;;;;;;;5026806;28;20469;-74
2021/12/16 12:34:32;;;;;;;10.48;7.38;;;;;;;;;;5047327;28;20033;-75
2021/12/16 12:37:01;;;;;;;9.80;7.50;;;;;;;;;;5028441;28;20068;-74
2021/12/16 12:39:31;;;;;;;9.95;7.07;;;;;;;;;;5032042;28;20041;-75
2021/12/16 12:41:57;;;;;;;14.23;6.85;;;;;;;;;;5031607;28;20037;-74
2021/12/16 12:44:22;;;;;;;9.88;6.85;;;;;;;;;;5029605;28;20394;-77
2021/12/16 12:46:49;;;;;;;9.00;6.70;;;;;;;;;;5031576;28;20034;-74
2021/12/16 12:49:17;;;;;;;10.52;6.30;;;;;;;;;;5029311;28;20123;-75
2021/12/16 12:51:49;;;;;;;10.43;6.03;;;;;;;;;;5046583;28;20048;-74
2021/12/16 12:54:25;;;;;;;10.25;6.45;;;;;;;;;;5031374;28;20041;-74
2021/12/16 12:56:55;;;;;;;8.88;6.35;;;;;;;;;;5030981;28;20294;-75
2021/12/16 12:59:32;;;;;;;13.43;6.75;;;;;;;;;;5026747;28;20124;-74
2021/12/16 13:01:58;;;;;;;8.23;6.32;;;;;;;;;;5047048;28;20025;-74
2021/12/16 13:04:31;;;;;;;9.23;6.07;;;;;;;;;;5030091;28;20458;-74
2021/12/16 13:07:06;;;;;;;9.60;6.32;;;;;;;;;;5046413;28;20123;-76
2021/12/16 13:09:40;;;;;;;9.48;4.68;;;;;;;;;;5023530;28;20509;-75
2021/12/16 13:12:37;;;;;;;8.30;5.70;;;;;;;;;;5027375;28;20465;-77
2021/12/16 13:15:36;;;;;;;7.18;5.60;;;;;;;;;;5024682;28;20057;-74
2021/12/16 13:23:38;;;;;;;8.27;5.50;;;;;;;;;;5030425;28;20056;-74
2021/12/16 13:29:05;;;;;;;6.40;3.73;;;;;;;;;;5028747;28;20037;-75
2021/12/16 13:31:58;;;;;;;4.68;4.00;;;;;;;;;;5029681;28;20037;-74
2021/12/16 13:34:29;;;;;;;8.43;3.70;;;;;;;;;;5044212;28;20034;-74
2021/12/16 13:36:57;;;;;;;5.05;3.33;;;;;;;;;;5046365;28;20404;-74
2021/12/16 13:39:25;;;;;;;7.22;4.13;;;;;;;;;;5044586;28;20043;-78
2021/12/16 13:42:05;;;;;;;6.50;4.57;;;;;;;;;;5030233;28;20033;-77
2021/12/16 13:44:41;;;;;;;7.90;4.30;;;;;;;;;;5029921;28;20040;-73
2021/12/16 13:47:19;;;;;;;7.70;4.30;;;;;;;;;;5031091;28;20045;-74
2021/12/16 14:02:03;;;;;;;6.00;3.63;;;;;;;;;;5029231;28;20057;-74
2021/12/16 14:07:14;;;;;;;4.20;2.95;;;;;;;;;;5028606;28;20046;-74
2021/12/16 14:10:00;;;;;;;6.03;4.05;;;;;;;;;;5030452;28;20124;-74
2021/12/16 14:24:08;;;;;;;6.38;3.70;;;;;;;;;;5024291;28;20127;-74
2021/12/16 14:37:16;;;;;;;4.13;3.13;;;;;;;;;;5029044;28;20035;-77
2021/12/16 14:48:09;;;;;;;5.35;3.60;;;;;;;;;;5035031;28;20049;-73
2021/12/16 14:50:41;;;;;;;3.83;2.90;;;;;;;;;;5043535;28;20037;-75
2021/12/16 14:53:16;;;;;;;10.75;5.60;;;;;;;;;;5027412;28;20389;-74
2021/12/16 14:55:42;;;;;;;11.18;5.45;;;;;;;;;;5026446;28;20079;-74
2021/12/16 14:58:07;;;;;;;7.93;4.60;;;;;;;;;;5029524;28;20049;-74
2021/12/16 15:00:40;;;;;;;5.57;3.73;;;;;;;;;;5027581;28;20116;-74
2021/12/16 15:03:13;;;;;;;4.68;3.00;;;;;;;;;;5027571;28;20032;-74
2021/12/16 15:05:47;;;;;;;5.40;3.17;;;;;;;;;;5044521;28;20382;-74
2021/12/16 15:08:14;;;;;;;4.43;3.10;;;;;;;;;;5044096;28;20552;-74
2021/12/16 15:10:39;;;;;;;4.93;3.22;;;;;;;;;;5026151;28;20045;-74
2021/12/16 15:13:15;;;;;;;7.17;3.67;;;;;;;;;;5028421;28;20055;-76
2021/12/16 15:16:32;;;;;;;4.82;3.35;;;;;;;;;;5028447;28;20064;-74
2021/12/16 15:40:53;;;;;;;3.60;2.97;;;;;;;;;;5017956;28;20038;-75
2021/12/16 15:43:02;;;;;;;5.68;3.15;;;;;;;;;;5027625;28;20065;-74
2021/12/16 15:45:38;;;;;;;4.45;3.47;;;;;;;;;;5027632;28;20478;-74
2021/12/16 15:48:10;;;;;;;7.47;3.92;;;;;;;;;;5027752;28;20041;-76
2021/12/16 15:50:47;;;;;;;6.00;3.58;;;;;;;;;;5025751;28;20043;-74
2021/12/16 15:53:22;;;;;;;6.32;3.92;;;;;;;;;;5028713;28;20136;-74
2021/12/16 15:55:57;;;;;;;5.18;3.92;;;;;;;;;;5027436;28;20622;-74
2021/12/16 15:58:26;;;;;;;8.93;4.70;;;;;;;;;;5029656;28;20060;-74
2021/12/16 16:00:56;;;;;;;5.13;3.75;;;;;;;;;;5023795;28;20068;-74
2021/12/16 16:03:22;;;;;;;6.18;3.78;;;;;;;;;;5030883;28;20029;-74
2021/12/16 16:05:59;;;;;;;8.27;4.63;;;;;;;;;;5032142;28;20179;-74
2021/12/16 16:08:27;;;;;;;7.63;5.07;;;;;;;;;;5044821;28;20041;-73
2021/12/16 16:10:58;;;;;;;10.15;6.30;;;;;;;;;;5047027;28;20497;-75
2021/12/16 16:13:25;;;;;;;19.52;10.10;;;;;;;;;;5031898;28;20531;-74
2021/12/16 16:15:54;;;;;;;27.90;13.07;;;;;;;;;;5032859;28;20030;-74
2021/12/16 16:21:03;;;;;;;14.80;7.87;;;;;;;;;;5021708;28;20126;-74
2021/12/16 16:23:30;;;;;;;23.77;11.45;;;;;;;;;;5031681;28;20042;-74
2021/12/16 16:25:56;;;;;;;29.10;14.70;;;;;;;;;;5030906;28;20044;-74
2021/12/16 16:28:25;;;;;;;22.50;12.03;;;;;;;;;;5032277;28;20034;-74
2021/12/16 16:30:53;;;;;;;20.08;10.38;;;;;;;;;;5029950;28;20501;-74
2021/12/16 16:33:21;;;;;;;11.18;6.35;;;;;;;;;;5032539;28;20029;-74
2021/12/16 16:36:01;;;;;;;12.50;6.15;;;;;;;;;;5030271;28;20041;-74
2021/12/16 16:38:54;;;;;;;10.55;6.47;;;;;;;;;;5031406;28;20401;-74
2021/12/16 16:41:23;;;;;;;8.20;5.00;;;;;;;;;;5024183;28;20064;-74
2021/12/16 16:44:02;;;;;;;5.18;3.78;;;;;;;;;;5031538;28;20068;-74
2021/12/16 16:46:43;;;;;;;6.57;3.78;;;;;;;;;;5046480;28;20617;-74
2021/12/16 16:49:23;;;;;;;4.40;3.08;;;;;;;;;;5029453;28;20060;-74
2021/12/16 16:51:49;;;;;;;5.00;3.17;;;;;;;;;;5031641;28;20036;-75
2021/12/16 16:54:37;;;;;;;4.03;3.30;;;;;;;;;;5031744;28;20116;-73
2021/12/16 16:57:02;;;;;;;;;;;;;;;;;;5024465;28;20037;-74
2021/12/16 16:59:46;;;;;;;4.85;3.17;;;;;;;;;;5030598;28;19923;-74
2021/12/16 17:02:17;;;;;;;5.05;3.13;;;;;;;;;;5030875;28;20393;-74
2021/12/16 17:04:44;;;;;;;8.10;3.22;;;;;;;;;;5017320;28;20116;-74
2021/12/16 17:07:09;;;;;;;;;;;;;;;;;;5026689;28;20485;-74
2021/12/16 17:09:38;;;;;;;5.63;2.60;;;;;;;;;;5031272;28;19920;-74
2021/12/16 17:12:08;;;;;;;6.53;3.28;;;;;;;;;;5031201;28;20045;-74
2021/12/16 17:14:37;;;;;;;5.50;3.33;;;;;;;;;;5029496;28;20041;-74
2021/12/16 17:17:12;;;;;;;6.85;3.85;;;;;;;;;;5029581;28;20037;-74
2021/12/16 17:19:44;;;;;;;5.75;3.75;;;;;;;;;;5045377;28;20095;-74
2021/12/16 17:22:30;;;;;;;6.30;4.30;;;;;;;;;;5029315;28;20041;-74
2021/12/16 17:24:56;;;;;;;8.05;4.95;;;;;;;;;;5040507;28;20908;-74
2021/12/16 17:27:23;;;;;;;4.63;2.97;;;;;;;;;;5030372;28;20150;-73
2021/12/16 17:29:57;;;;;;;9.05;4.05;;;;;;;;;;5029507;28;20064;-74
2021/12/16 17:32:33;;;;;;;5.80;3.40;;;;;;;;;;5029597;28;20037;-74
2021/12/16 17:35:08;;;;;;;7.18;3.70;;;;;;;;;;5041894;28;20052;-74
2021/12/16 17:37:38;;;;;;;11.40;4.43;;;;;;;;;;5029802;28;20503;-74
2021/12/16 17:40:10;;;;;;;5.00;3.45;;;;;;;;;;5029311;28;20561;-74
2021/12/16 17:42:39;;;;;;;5.18;3.55;;;;;;;;;;5030329;28;20045;-74
2021/12/16 17:45:29;;;;;;;6.30;4.22;;;;;;;;;;5026616;28;20037;-74
2021/12/16 17:47:57;;;;;;;6.95;3.58;;;;;;;;;;5027567;28;20077;-74
2021/12/16 17:50:30;;;;;;;6.35;4.05;;;;;;;;;;5030051;28;20041;-73
2021/12/16 17:52:57;;;;;;;7.90;4.63;;;;;;;;;;5029337;28;20037;-73
2021/12/16 17:55:27;;;;;;;8.07;5.13;;;;;;;;;;5015167;28;20120;-74
2021/12/16 17:57:58;;;;;;;6.45;3.78;;;;;;;;;;5044005;28;20520;-74
2021/12/16 18:00:29;;;;;;;7.60;3.80;;;;;;;;;;5026204;28;20146;-75
2021/12/16 18:02:56;;;;;;;5.00;3.03;;;;;;;;;;5029088;28;20033;-74
2021/12/16 18:05:23;;;;;;;;;;;;;;;;;;5028362;28;20160;-76
2021/12/16 18:07:48;;;;;;;5.78;3.60;;;;;;;;;;5042383;28;20278;-74
2021/12/16 18:10:16;;;;;;;5.60;3.17;;;;;;;;;;5030456;28;20136;-74
2021/12/16 18:12:44;;;;;;;4.78;3.03;;;;;;;;;;5023212;28;20058;-74
2021/12/16 18:15:17;;;;;;;6.00;3.38;;;;;;;;;;5031013;28;20486;-75
2021/12/16 18:17:46;;;;;;;7.35;3.75;;;;;;;;;;5030027;28;20037;-75
2021/12/16 18:20:17;;;;;;;3.97;2.85;;;;;;;;;;5024301;28;20064;-74
2021/12/16 18:22:43;;;;;;;6.85;4.05;;;;;;;;;;5026563;28;20050;-74
2021/12/16 18:25:15;;;;;;;7.05;3.70;;;;;;;;;;5031262;28;20049;-74
2021/12/16 18:27:53;;;;;;;6.00;3.60;;;;;;;;;;5030876;28;20053;-75
2021/12/16 18:30:26;;;;;;;7.40;4.03;;;;;;;;;;5046111;28;20123;-74
2021/12/16 18:33:03;;;;;;;8.88;4.53;;;;;;;;;;5032521;28;20041;-75
2021/12/16 18:35:34;;;;;;;14.90;8.48;;;;;;;;;;5030965;28;20041;-75
2021/12/16 18:38:04;;;;;;;6.70;4.15;;;;;;;;;;5030241;28;20048;-75
2021/12/16 18:40:30;;;;;;;7.40;4.40;;;;;;;;;;5030673;28;20474;-74